Main page
Satellite images 15-day forecastsClimateMarine weather Cyclones Lightning AirportsFAQ Newsletter About
Weather : Europe Africa North America South America Asia Australia-Oceania Others
Languages Contact

Charlotte, North Carolina, United States

Charlotte/Douglas International Airport

latitude: 35-12-48N, longitude: 080-56-55W, elevation: 748 ft


METAR: KCLT 260552Z 27003KT 10SM CLR 10/06 A2993 RMK AO2 SLP128 T01000061 10167 20100 58007
TAF: KCLT 260533Z 2606/2706 30004KT P6SM SKC FM261500 31008KT P6SM SKC FM262300 32004KT P6SM SKC

Time: 02:54 (06:54 UTC)

Current weather observation

The report was made 1 hour and 2 minutes ago, at 05:52 UTC
Wind 3 mph from the West
Temperature 50°F
Humidity 76%
Pressure 29.93 in. Hg
Visibility: 10 miles
Clear sky

Change units

Forecast

The report was made 1 hour and 21 minutes ago, at 05:33 UTC
Forecast valid from 26 at 06 UTC to 27 at 06 UTC
Wind 5 mph from the West/Northwest
Visibility: 6 miles
Clear sky
From 26 at 1500 UTC
Wind 9 mph from the Northwest
Visibility: 6 miles
Clear sky
From 26 at 2300 UTC
Wind 5 mph from the Northwest
Visibility: 6 miles
Clear sky
The information on this site is subject to a disclaimer
Weather : Europe Africa North America South America Asia Australia-Oceania Others
Satellite images 15-day forecastsClimateMarine weather Cyclones Lightning AirportsFAQ Languages Contact Newsletter About